createdAt,value
2016-03-08T00:00:20.091Z,86.66
2016-03-08T00:01:20.094Z,86.85
2016-03-08T00:02:20.112Z,86.94
2016-03-08T00:03:20.130Z,86.94
2016-03-08T00:04:20.134Z,86.56
2016-03-08T00:05:20.152Z,86.75
2016-03-08T00:06:20.170Z,87.04
2016-03-08T00:07:20.189Z,86.94
2016-03-08T00:08:20.191Z,86.66
2016-03-08T00:09:20.194Z,87.04
2016-03-08T00:10:20.211Z,87.6
2016-03-08T00:11:20.230Z,87.32
2016-03-08T00:12:20.233Z,87.6
2016-03-08T00:13:20.252Z,87.23
2016-03-08T00:14:20.269Z,87.04
2016-03-08T00:15:20.272Z,86.94
2016-03-08T00:16:20.274Z,86.75
2016-03-08T00:17:20.278Z,86.66
2016-03-08T00:18:20.296Z,86.66
2016-03-08T00:19:20.314Z,87.23
2016-03-08T00:20:20.332Z,86.94
2016-03-08T00:21:20.335Z,86.75
2016-03-08T00:22:20.354Z,86.94
2016-03-08T00:23:20.357Z,86.47
2016-03-08T00:24:20.374Z,86.66
2016-03-08T00:25:20.376Z,87.04
2016-03-08T00:26:20.396Z,87.23
2016-03-08T00:27:20.414Z,86.85
2016-03-08T00:28:20.416Z,87.04
2016-03-08T00:29:20.435Z,87.13
2016-03-08T00:30:20.437Z,87.13
2016-03-08T00:31:20.456Z,87.6
2016-03-08T00:32:20.475Z,87.23
2016-03-08T00:33:20.477Z,87.41
2016-03-08T00:34:20.480Z,86.85
2016-03-08T00:35:20.498Z,87.41
2016-03-08T00:36:20.547Z,87.23
2016-03-08T00:37:20.519Z,87.23
2016-03-08T00:38:20.537Z,87.41
2016-03-08T00:39:20.556Z,87.51
2016-03-08T00:40:20.558Z,87.41
2016-03-08T00:41:20.577Z,87.41
2016-03-08T00:42:20.579Z,87.04
2016-03-08T00:43:20.597Z,87.23
2016-03-08T00:44:20.600Z,87.41
2016-03-08T00:45:20.634Z,87.41
2016-03-08T00:46:20.621Z,87.6
2016-03-08T00:47:20.639Z,87.32
2016-03-08T00:48:20.658Z,87.51
2016-03-08T00:49:20.676Z,87.23
2016-03-08T00:50:20.679Z,87.41
2016-03-08T00:51:20.682Z,87.51
2016-03-08T00:52:20.699Z,87.79
2016-03-08T00:53:20.702Z,87.51
2016-03-08T00:54:20.721Z,87.32
2016-03-08T00:55:20.739Z,87.32
2016-03-08T00:56:20.742Z,87.32
2016-03-08T00:57:20.760Z,87.04
2016-03-08T00:58:20.762Z,86.94
2016-03-08T00:59:20.782Z,87.13
2016-03-08T01:00:20.815Z,87.13
2016-03-08T01:01:20.803Z,87.7
2016-03-08T01:02:20.820Z,87.32
2016-03-08T01:03:20.823Z,87.32
2016-03-08T01:04:20.826Z,87.79
2016-03-08T01:05:20.844Z,87.32
2016-03-08T01:06:20.862Z,87.7
2016-03-08T01:07:20.865Z,87.23
2016-03-08T01:08:20.899Z,87.32
2016-03-08T01:09:20.902Z,87.65
2016-03-08T01:10:20.898Z,88.22
2016-03-08T01:11:20.888Z,87.84
2016-03-08T01:12:20.910Z,87.93
2016-03-08T01:13:20.884Z,88.03
2016-03-08T01:14:20.890Z,87.93
2016-03-08T01:15:20.901Z,88.12
2016-03-08T01:16:20.931Z,88.03
2016-03-08T01:17:20.914Z,88.22
2016-03-08T01:18:20.928Z,87.37
2016-03-08T01:19:20.941Z,87.46
2016-03-08T01:20:20.941Z,86.9
2016-03-08T01:21:20.943Z,87.55
2016-03-08T01:22:20.960Z,87.55
2016-03-08T01:23:20.961Z,87.55
2016-03-08T01:24:20.977Z,87.18
2016-03-08T01:25:20.980Z,87.46
2016-03-08T01:26:20.996Z,87.46
2016-03-08T01:27:20.999Z,87.46
2016-03-08T01:28:21.016Z,86.99
2016-03-08T01:32:21.056Z,88.03
2016-03-08T01:33:21.089Z,88.22
2016-03-08T01:34:21.077Z,88.22
2016-03-08T01:35:21.094Z,88.12
2016-03-08T01:36:21.112Z,88.22
2016-03-08T01:37:21.100Z,88.31
2016-03-08T01:38:21.134Z,87.46
2016-03-08T01:39:21.136Z,87.27
2016-03-08T01:40:21.140Z,87.18
2016-03-08T01:41:21.157Z,87.55
2016-03-08T01:42:21.160Z,87.27
2016-03-08T01:43:21.178Z,87.46
2016-03-08T01:44:21.306Z,87.65
2016-03-08T01:45:21.200Z,86.8
2016-03-08T01:46:21.218Z,86.99
2016-03-08T01:47:21.220Z,86.9
2016-03-08T01:48:21.254Z,86.99
2016-03-08T01:49:21.241Z,86.71
2016-03-08T01:50:21.260Z,86.99
2016-03-08T01:51:21.278Z,86.99
2016-03-08T01:52:21.280Z,87.55
2016-03-08T01:53:21.283Z,87.55
2016-03-08T01:54:21.302Z,87.55
2016-03-08T01:55:21.319Z,87.46
2016-03-08T01:56:21.355Z,87.65
2016-03-08T01:57:21.325Z,86.99
2016-03-08T01:58:21.343Z,86.99
2016-03-08T01:59:21.363Z,87.18
2016-03-08T02:00:21.380Z,87.37
2016-03-08T02:01:21.383Z,87.46
2016-03-08T02:02:21.385Z,87.46
2016-03-08T02:03:21.435Z,88.22
2016-03-08T02:04:21.407Z,88.12
2016-03-08T02:05:21.425Z,88.22
2016-03-08T02:06:21.444Z,88.03
2016-03-08T02:07:21.446Z,87.84
2016-03-08T02:08:21.448Z,88.03
2016-03-08T02:09:21.468Z,88.22
2016-03-08T02:10:21.501Z,88.12
2016-03-08T02:11:21.487Z,87.37
2016-03-08T02:12:21.507Z,87.65
2016-03-08T02:13:21.525Z,87.65
2016-03-08T02:14:21.512Z,87.65
2016-03-08T02:15:21.531Z,87.46
2016-03-08T02:16:21.564Z,87.27
2016-03-08T02:17:21.582Z,87.46
2016-03-08T02:18:21.601Z,87.55
2016-03-08T02:19:21.572Z,87.46
2016-03-08T02:20:21.590Z,87.37
2016-03-08T02:21:21.608Z,87.27
2016-03-08T02:22:21.611Z,87.55
2016-03-08T02:23:21.630Z,87.46
2016-03-08T02:24:21.633Z,87.18
2016-03-08T02:25:21.635Z,87.55
2016-03-08T02:26:21.669Z,88.03
2016-03-08T02:27:21.656Z,88.22
2016-03-08T02:28:21.674Z,87.98
2016-03-08T02:29:21.693Z,87.7
2016-03-08T02:30:21.695Z,88.17
2016-03-08T02:31:21.699Z,87.79
2016-03-08T02:32:21.716Z,87.23
2016-03-08T02:33:21.766Z,87.23
2016-03-08T02:34:21.738Z,87.23
2016-03-08T02:35:21.755Z,88.17
2016-03-08T02:36:21.758Z,88.17
2016-03-08T02:37:21.761Z,88.08
2016-03-08T02:38:21.796Z,87.98
2016-03-08T02:39:21.798Z,88.17
2016-03-08T02:40:21.800Z,87.98
2016-03-08T02:41:21.819Z,88.08
2016-03-08T02:42:21.821Z,87.13
2016-03-08T02:43:21.840Z,88.36
2016-03-08T02:44:21.859Z,87.42
2016-03-08T02:45:21.845Z,87.61
2016-03-08T02:46:21.863Z,87.51
2016-03-08T02:47:21.882Z,87.42
2016-03-08T02:48:21.900Z,87.61
2016-03-08T02:49:21.903Z,87.7
2016-03-08T02:50:21.921Z,87.23
2016-03-08T02:51:21.908Z,87.51
2016-03-08T02:52:21.926Z,88.27
2016-03-08T02:53:21.961Z,88.27
2016-03-08T02:54:21.947Z,87.98
2016-03-08T02:55:21.966Z,88.17
2016-03-08T02:56:21.983Z,87.51
2016-03-08T02:57:21.987Z,88.36
2016-03-08T02:58:22.005Z,88.17
2016-03-08T02:59:21.991Z,87.42
2016-03-08T03:00:22.010Z,87.51
2016-03-08T03:01:22.029Z,88.17
2016-03-08T03:02:22.047Z,87.98
2016-03-08T03:03:22.050Z,88.17
2016-03-08T03:04:22.068Z,88.55
2016-03-08T03:05:22.071Z,88.41
2016-03-08T03:06:22.089Z,88.41
2016-03-08T03:07:22.092Z,88.31
2016-03-08T03:08:22.094Z,88.12
2016-03-08T03:09:22.112Z,88.12
2016-03-08T03:10:22.132Z,88.22
2016-03-08T03:11:22.134Z,87.65
2016-03-08T03:12:22.137Z,87.27
2016-03-08T03:13:22.155Z,87.37
2016-03-08T03:14:22.173Z,87.46
2016-03-08T03:15:22.175Z,87.37
2016-03-08T03:16:22.179Z,87.55
2016-03-08T03:17:22.212Z,88.03
2016-03-08T03:18:22.200Z,87.74
2016-03-08T03:19:22.217Z,87.93
2016-03-08T03:20:22.220Z,88.12
2016-03-08T03:21:22.239Z,88.22
2016-03-08T03:22:22.257Z,88.22
2016-03-08T03:23:22.260Z,88.22
2016-03-08T03:24:22.294Z,88.22
2016-03-08T03:25:22.280Z,88.5
2016-03-08T03:26:22.284Z,88.98
2016-03-08T03:27:22.395Z,88.41
2016-03-08T03:28:22.320Z,88.5
2016-03-08T03:29:22.338Z,88.79
2016-03-08T03:30:22.388Z,88.22
2016-03-08T03:31:22.360Z,87.89
2016-03-08T03:32:22.363Z,87.98
2016-03-08T03:33:22.366Z,88.27
2016-03-08T03:34:22.383Z,88.46
2016-03-08T03:35:22.401Z,88.84
2016-03-08T03:36:22.452Z,88.17
2016-03-08T03:37:22.454Z,87.7
2016-03-08T03:38:22.456Z,87.98
2016-03-08T03:39:22.459Z,88.17
2016-03-08T03:40:22.462Z,87.7
2016-03-08T03:41:22.464Z,87.98
2016-03-08T03:42:22.468Z,88.17
2016-03-08T03:43:22.470Z,88.08
2016-03-08T03:44:22.488Z,88.27
2016-03-08T03:45:22.490Z,88.27
2016-03-08T03:46:22.525Z,87.89
2016-03-08T03:47:22.512Z,88.65
2016-03-08T03:48:22.530Z,88.46
2016-03-08T03:49:22.548Z,88.84
2016-03-08T03:50:22.551Z,89.03
2016-03-08T03:51:22.553Z,88.93
2016-03-08T03:52:22.573Z,88.27
2016-03-08T03:53:22.606Z,88.93
2016-03-08T03:54:22.593Z,89.4
2016-03-08T03:55:22.596Z,89.31
2016-03-08T03:56:22.614Z,88.65
2016-03-08T03:57:22.617Z,88.84
2016-03-08T03:58:22.635Z,88.17
2016-03-08T03:59:22.638Z,88.17
2016-03-08T04:00:22.656Z,88.27
2016-03-08T04:01:22.674Z,88.84
2016-03-08T04:02:22.678Z,88.36
2016-03-08T04:03:22.696Z,88.93
2016-03-08T04:04:22.698Z,88.74
2016-03-08T04:05:22.701Z,88.55
2016-03-08T04:06:22.729Z,88.36
2016-03-08T04:07:22.732Z,88.74
2016-03-08T04:08:22.734Z,88.55
2016-03-08T04:09:22.753Z,88.36
2016-03-08T04:10:22.756Z,88.84
2016-03-08T04:11:22.789Z,88.74
2016-03-08T04:12:22.776Z,88.65
2016-03-08T04:13:22.795Z,89.31
2016-03-08T04:14:22.812Z,89.03
2016-03-08T04:15:22.816Z,88.55
2016-03-08T04:16:22.818Z,88.93
2016-03-08T04:17:22.837Z,89.03
2016-03-08T04:18:22.839Z,89.12
2016-03-08T04:19:22.858Z,89.12
2016-03-08T04:20:22.875Z,89.22
2016-03-08T04:21:22.894Z,89.69
2016-03-08T04:22:22.896Z,89.4
2016-03-08T04:23:22.899Z,89.03
2016-03-08T04:24:22.918Z,89.31
2016-03-08T04:25:22.905Z,88.74
2016-03-08T04:26:22.924Z,88.84
2016-03-08T04:27:22.941Z,88.74
2016-03-08T04:28:22.944Z,88.93
2016-03-08T04:29:22.963Z,89.03
2016-03-08T04:30:22.965Z,89.12
2016-03-08T04:31:22.968Z,89.69
2016-03-08T04:32:22.985Z,89.69
2016-03-08T04:33:23.005Z,89.4
2016-03-08T04:34:23.007Z,88.93
2016-03-08T04:35:23.010Z,89.4
2016-03-08T04:36:23.029Z,89.12
2016-03-08T04:37:23.046Z,89.03
2016-03-08T04:38:23.065Z,89.03
2016-03-08T04:39:23.052Z,89.03
2016-03-08T04:40:22.320Z,89.12
2016-03-08T04:41:23.089Z,88.74
2016-03-08T04:42:23.091Z,88.46
2016-03-08T04:43:23.095Z,89.03
2016-03-08T04:44:23.112Z,88.84
2016-03-08T04:45:23.131Z,88.17
2016-03-08T04:46:23.149Z,88.27
2016-03-08T04:47:23.151Z,87.98
2016-03-08T04:48:23.139Z,88.46
2016-03-08T04:49:23.173Z,88.84
2016-03-08T04:50:23.192Z,88.46
2016-03-08T04:51:23.194Z,88.74
2016-03-08T04:52:23.180Z,89.31
2016-03-08T04:53:23.214Z,89.03
2016-03-08T04:54:23.217Z,88.74
2016-03-08T04:55:23.219Z,88.93
2016-03-08T04:56:23.255Z,88.74
2016-03-08T04:57:23.241Z,88.55
2016-03-08T04:58:23.259Z,89.26
2016-03-08T04:59:23.262Z,89.31
2016-03-08T05:00:23.265Z,89.07
2016-03-08T05:01:23.283Z,88.7
2016-03-08T05:02:23.301Z,89.31
2016-03-08T05:03:23.319Z,88.98
2016-03-08T05:04:23.322Z,88.79
2016-03-08T05:05:23.324Z,88.89
2016-03-08T05:06:23.344Z,88.84
2016-03-08T05:07:23.346Z,88.7
2016-03-08T05:08:23.365Z,89.07
2016-03-08T05:09:23.367Z,89.31
2016-03-08T05:10:23.385Z,89.36
2016-03-08T05:11:23.388Z,89.07
2016-03-08T05:12:23.406Z,89.26
2016-03-08T05:13:23.393Z,88.98
2016-03-08T05:14:23.428Z,89.07
2016-03-08T05:15:23.430Z,89.26
2016-03-08T05:16:23.434Z,89.17
2016-03-08T05:17:23.436Z,89.17
2016-03-08T05:18:23.470Z,89.07
2016-03-08T05:19:23.472Z,88.89
2016-03-08T05:20:23.475Z,89.36
2016-03-08T05:21:23.492Z,88.98
2016-03-08T05:22:23.511Z,89.17
2016-03-08T05:23:23.513Z,88.7
2016-03-08T05:24:23.517Z,88.42
2016-03-08T05:25:23.535Z,88.89
2016-03-08T05:26:23.553Z,88.79
2016-03-08T05:27:23.541Z,89.07
2016-03-08T05:28:23.558Z,88.7
2016-03-08T05:29:23.561Z,88.6
2016-03-08T05:30:23.579Z,89.36
2016-03-08T05:31:23.583Z,89.07
2016-03-08T05:32:23.601Z,89.36
2016-03-08T05:33:23.603Z,89.36
2016-03-08T05:34:23.631Z,89.07
2016-03-08T05:35:24.671Z,88.6
2016-03-08T05:36:23.461Z,88.89
2016-03-08T05:37:23.757Z,88.7
2016-03-08T05:38:24.750Z,88.98
2016-03-08T05:39:23.674Z,88.51
2016-03-08T05:40:23.661Z,88.51
2016-03-08T05:41:23.679Z,88.7
2016-03-08T05:42:23.681Z,88.89
2016-03-08T05:43:23.717Z,88.6
2016-03-08T05:44:23.703Z,88.98
2016-03-08T05:45:23.722Z,88.89
2016-03-08T05:46:23.725Z,88.13
2016-03-08T05:47:23.727Z,88.79
2016-03-08T05:48:23.761Z,88.32
2016-03-08T05:49:23.771Z,88.6
2016-03-08T05:50:23.758Z,88.42
2016-03-08T05:51:23.791Z,88.42
2016-03-08T05:52:23.779Z,88.7
2016-03-08T05:53:23.797Z,88.7
2016-03-08T05:54:23.815Z,88.6
2016-03-08T05:55:23.662Z,88.51
2016-03-08T05:56:23.821Z,88.6
2016-03-08T05:57:23.838Z,88.7
2016-03-08T05:58:23.841Z,88.98
2016-03-08T05:59:23.860Z,88.7
2016-03-08T06:00:23.878Z,88.23
2016-03-08T06:01:23.865Z,88.04
2016-03-08T06:02:23.883Z,87.94
2016-03-08T06:03:23.902Z,87.75
2016-03-08T06:04:23.904Z,87.28
2016-03-08T06:05:23.907Z,87.75
2016-03-08T06:06:23.914Z,88.13
2016-03-08T06:07:23.918Z,88.32
2016-03-08T06:08:23.951Z,88.13
2016-03-08T06:09:23.938Z,88.32
2016-03-08T06:10:23.972Z,88.32
2016-03-08T06:11:23.959Z,88.13
2016-03-08T06:12:23.962Z,88.32
2016-03-08T06:13:23.996Z,88.23
2016-03-08T06:14:23.999Z,87.94
2016-03-08T06:15:24.002Z,88.04
2016-03-08T06:16:24.066Z,87.94
2016-03-08T06:17:24.023Z,87.94
2016-03-08T06:18:24.057Z,88.32
2016-03-08T06:19:24.044Z,88.13
2016-03-08T06:20:24.062Z,88.23
2016-03-08T06:21:24.065Z,88.04
2016-03-08T06:22:24.083Z,88.32
2016-03-08T06:23:24.085Z,88.32
2016-03-08T06:24:24.104Z,88.13
2016-03-08T06:25:24.107Z,88.23
2016-03-08T06:26:24.125Z,88.6
2016-03-08T06:27:24.127Z,88.79
2016-03-08T06:28:24.146Z,88.13
2016-03-08T06:29:24.148Z,88.32
2016-03-08T06:30:24.151Z,87.94
2016-03-08T06:31:24.169Z,88.17
2016-03-08T06:32:24.157Z,87.61
2016-03-08T06:33:24.190Z,87.61
2016-03-08T06:34:24.193Z,87.61
2016-03-08T06:35:24.211Z,87.23
2016-03-08T06:36:24.214Z,88.17
2016-03-08T06:37:24.233Z,87.23
2016-03-08T06:38:24.235Z,87.23
2016-03-08T06:39:24.270Z,87.51
2016-03-08T06:40:24.272Z,87.32
2016-03-08T06:41:24.258Z,87.23
2016-03-08T06:42:24.277Z,87.51
2016-03-08T06:43:24.280Z,87.98
2016-03-08T06:44:24.298Z,88.36
2016-03-08T06:45:24.316Z,88.27
2016-03-08T06:46:24.319Z,88.36
2016-03-08T06:47:24.338Z,88.08
2016-03-08T06:48:24.324Z,88.08
2016-03-08T06:49:24.359Z,87.89
2016-03-08T06:50:24.361Z,88.17
2016-03-08T06:51:24.364Z,87.42
2016-03-08T06:52:24.366Z,87.23
2016-03-08T06:53:24.385Z,87.61
2016-03-08T06:54:24.388Z,87.61
2016-03-08T06:55:24.406Z,87.61
2016-03-08T06:56:24.424Z,87.42
2016-03-08T06:57:24.443Z,87.04
2016-03-08T06:58:24.430Z,87.42
2016-03-08T06:59:24.448Z,87.7
2016-03-08T07:00:24.451Z,87.51
2016-03-08T07:01:24.485Z,87.23
2016-03-08T07:02:24.471Z,87.42
2016-03-08T07:03:24.489Z,87.61
2016-03-08T07:04:24.493Z,87.32
2016-03-08T07:05:24.526Z,87.51
2016-03-08T07:06:24.528Z,87.23
2016-03-08T07:07:24.547Z,87.46
2016-03-08T07:08:24.394Z,86.99
2016-03-08T07:09:24.569Z,87.27
2016-03-08T07:10:24.556Z,87.46
2016-03-08T07:11:24.575Z,87.08
2016-03-08T07:12:24.592Z,87.46
2016-03-08T07:13:24.594Z,86.8
2016-03-08T07:14:24.613Z,86.8
2016-03-08T07:15:24.631Z,86.9
2016-03-08T07:16:24.634Z,87.18
2016-03-08T07:17:24.652Z,87.08
2016-03-08T07:18:24.639Z,86.42
2016-03-08T07:19:24.658Z,86.9
2016-03-08T07:20:24.676Z,86.99
2016-03-08T07:21:24.680Z,86.52
2016-03-08T07:22:24.697Z,86.42
2016-03-08T07:23:24.700Z,86.33
2016-03-08T07:24:24.718Z,86.18
2016-03-08T07:25:24.721Z,86.09
2016-03-08T07:26:24.740Z,86.18
2016-03-08T07:27:24.773Z,85.9
2016-03-08T07:28:24.760Z,85.99
2016-03-08T07:29:24.779Z,86.18
2016-03-08T07:30:24.796Z,85.71
2016-03-08T07:31:24.799Z,85.42
2016-03-08T07:32:24.802Z,85.52
2016-03-08T07:33:24.852Z,85.33
2016-03-08T07:34:24.839Z,85.14
2016-03-08T07:35:24.826Z,84.95
2016-03-08T07:36:24.860Z,84.86
2016-03-08T07:37:24.878Z,84.58
2016-03-08T07:38:24.864Z,85
2016-03-08T07:39:24.883Z,84.71
2016-03-08T07:40:24.136Z,84.52
2016-03-08T07:41:24.920Z,84.23
2016-03-08T07:42:24.908Z,84.05
2016-03-08T07:43:24.926Z,83.76
2016-03-08T07:44:24.944Z,83.29
2016-03-08T07:45:24.961Z,84.23
2016-03-08T07:46:24.965Z,83.76
2016-03-08T07:47:24.983Z,84.23
2016-03-08T07:48:24.986Z,84.33
2016-03-08T07:49:25.019Z,83.48
2016-03-08T07:50:25.007Z,83.1
2016-03-08T07:51:25.025Z,83.01
2016-03-08T07:52:25.043Z,83.33
2016-03-08T07:53:25.047Z,83.14
2016-03-08T07:54:25.065Z,83.05
2016-03-08T07:55:25.083Z,83.71
2016-03-08T07:56:25.085Z,83.14
2016-03-08T07:57:25.104Z,82.95
2016-03-08T07:58:25.185Z,82.48
2016-03-08T07:59:25.138Z,82.67
2016-03-08T08:00:25.141Z,81.72
2016-03-08T08:01:25.144Z,79.74
2016-03-08T08:02:25.177Z,79.07
2016-03-08T08:03:25.180Z,78.69
2016-03-08T08:04:25.183Z,78.88
2016-03-08T08:05:25.201Z,77.84
2016-03-08T08:06:25.220Z,77.65
2016-03-08T08:07:25.223Z,77.84
2016-03-08T08:08:25.241Z,77.46
2016-03-08T08:09:25.243Z,76.99
2016-03-08T08:10:25.262Z,77.88
2016-03-08T08:11:25.265Z,77.97
2016-03-08T08:12:25.283Z,77.5
2016-03-08T08:13:25.300Z,77.12
2016-03-08T08:14:25.320Z,76.27
2016-03-08T08:15:25.322Z,75.79
2016-03-08T08:16:25.325Z,75.42
2016-03-08T08:17:25.359Z,75.51
2016-03-08T08:18:25.345Z,75.51
2016-03-08T08:19:25.395Z,74.95
2016-03-08T08:20:25.382Z,74.28
2016-03-08T08:21:25.386Z,74.28
2016-03-08T08:22:25.419Z,73.8
2016-03-08T08:23:25.421Z,73.14
2016-03-08T08:24:25.440Z,73.43
2016-03-08T08:25:25.458Z,73.33
2016-03-08T08:26:25.477Z,73.56
2016-03-08T08:27:25.480Z,73.08
2016-03-08T08:28:25.482Z,72.89
2016-03-08T08:29:25.500Z,72.8
2016-03-08T08:30:25.519Z,72.99
2016-03-08T08:31:25.584Z,72.8
2016-03-08T08:32:25.524Z,72.71
2016-03-08T08:33:25.558Z,72.14
2016-03-08T08:34:25.576Z,71.47
2016-03-08T08:35:25.595Z,70.53
2016-03-08T08:36:25.582Z,71
2016-03-08T08:37:25.615Z,70.15
2016-03-08T08:38:25.603Z,69.9
2016-03-08T08:39:25.637Z,69.99
2016-03-08T08:40:25.640Z,69.33
2016-03-08T08:41:25.658Z,68.66
2016-03-08T08:42:25.676Z,68.19
2016-03-08T08:43:25.663Z,67.62
2016-03-08T08:44:25.712Z,67.52
2016-03-08T08:45:25.700Z,67.62
2016-03-08T08:46:25.733Z,66.58
2016-03-08T08:47:25.720Z,66.39
2016-03-08T08:48:25.770Z,67.05
2016-03-08T08:49:25.757Z,67.24
2016-03-08T08:50:25.760Z,68.19
2016-03-08T08:51:25.778Z,68.29
2016-03-08T08:52:25.812Z,67.81
2016-03-08T08:53:25.814Z,68.38
2016-03-08T08:54:25.896Z,68.19
2016-03-08T08:55:25.836Z,68.29
2016-03-08T08:56:25.855Z,67.81
2016-03-08T08:57:25.857Z,66.86
2016-03-08T08:58:25.891Z,66.67
2016-03-08T08:59:25.878Z,66.48
2016-03-08T09:00:25.912Z,66.8
2016-03-08T09:01:25.915Z,66.89
2016-03-08T09:02:25.933Z,65.82
2016-03-08T09:03:25.810Z,66.1
2016-03-08T09:04:25.969Z,66.1
2016-03-08T09:05:25.971Z,66.71
2016-03-08T09:06:25.991Z,66.8
2016-03-08T09:07:26.009Z,66.61
2016-03-08T09:08:26.012Z,66.61
2016-03-08T09:09:26.030Z,67.14
2016-03-08T09:10:26.048Z,66.96
2016-03-08T09:11:26.051Z,67.24
2016-03-08T09:12:26.085Z,68.1
2016-03-08T09:13:26.110Z,68.38
2016-03-08T09:14:26.097Z,68.19
2016-03-08T09:15:26.100Z,67.81
2016-03-08T09:16:26.119Z,68.48
2016-03-08T09:17:26.136Z,68
2016-03-08T09:18:26.154Z,68.29
2016-03-08T09:19:26.158Z,67.62
2016-03-08T09:20:26.175Z,66.58
2016-03-08T09:21:26.178Z,66.48
2016-03-08T09:22:26.197Z,65.82
2016-03-08T09:23:26.215Z,66.33
2016-03-08T09:24:26.218Z,65.66
2016-03-08T09:25:26.252Z,65.37
2016-03-08T09:26:26.271Z,65.56
2016-03-08T09:27:26.273Z,65.66
2016-03-08T09:28:26.276Z,66.04
2016-03-08T09:29:26.294Z,65.75
2016-03-08T09:30:26.312Z,65.95
2016-03-08T09:31:26.315Z,66.04
2016-03-08T09:32:26.348Z,65.56
2016-03-08T09:33:26.351Z,65.28
2016-03-08T09:34:26.369Z,65.56
2016-03-08T09:35:26.388Z,65.85
2016-03-08T09:36:26.390Z,65.37
2016-03-08T09:37:26.392Z,66.14
2016-03-08T09:38:26.411Z,66.42
2016-03-08T09:39:26.430Z,66.71
2016-03-08T09:40:26.448Z,66.89
2016-03-08T09:41:26.467Z,66.89
2016-03-08T09:42:26.484Z,66.33
2016-03-08T09:43:26.487Z,66.89
2016-03-08T09:44:26.505Z,66.33
2016-03-08T09:45:26.509Z,66.04
2016-03-08T09:46:26.527Z,66.89
2016-03-08T09:47:26.576Z,66.52
2016-03-08T09:48:26.548Z,66.71
2016-03-08T09:49:26.550Z,67.33
2016-03-08T09:50:26.569Z,67.43
2016-03-08T09:51:26.603Z,68.48
2016-03-08T09:52:26.621Z,67.9
2016-03-08T09:53:26.624Z,67.71
2016-03-08T09:54:26.641Z,67.71
2016-03-08T09:55:26.660Z,67.43
2016-03-08T09:56:26.663Z,67.94
2016-03-08T09:57:26.665Z,67.24
2016-03-08T09:58:26.684Z,67.43
2016-03-08T09:59:26.702Z,67.52
2016-03-08T10:00:26.705Z,67.33
2016-03-08T10:01:26.739Z,68.19
2016-03-08T10:02:26.742Z,66.77
2016-03-08T10:03:26.759Z,66.48
2016-03-08T10:04:26.763Z,66.39
2016-03-08T10:05:26.796Z,66.71
2016-03-08T10:06:26.799Z,66.61
2016-03-08T10:07:26.819Z,66.8
2016-03-08T10:08:26.837Z,66.48
2016-03-08T10:09:26.840Z,67.33
2016-03-08T10:10:26.843Z,67.43
2016-03-08T10:11:26.876Z,67.33
2016-03-08T10:12:26.863Z,67.52
2016-03-08T10:13:26.898Z,67.05
2016-03-08T10:14:26.900Z,67.43
2016-03-08T10:15:26.903Z,67.14
2016-03-08T10:16:26.930Z,67.24
2016-03-08T10:17:26.924Z,66.77
2016-03-08T10:18:26.947Z,67.33
2016-03-08T10:19:26.940Z,67.33
2016-03-08T10:20:26.933Z,67.52
2016-03-08T10:21:26.960Z,66.67
2016-03-08T10:22:26.945Z,66.71
2016-03-08T10:23:26.975Z,66.99
2016-03-08T10:24:26.973Z,66.89
2016-03-08T10:25:26.989Z,66.89
2016-03-08T10:26:26.990Z,66.8
2016-03-08T10:27:27.022Z,66.52
2016-03-08T10:28:27.039Z,66.52
2016-03-08T10:29:27.041Z,66.52
2016-03-08T10:30:27.058Z,66.61
2016-03-08T10:31:27.076Z,67.18
2016-03-08T10:32:27.093Z,66.96
2016-03-08T10:33:27.095Z,66.71
2016-03-08T10:34:27.097Z,66.52
2016-03-08T10:35:27.116Z,66.61
2016-03-08T10:36:27.118Z,66.42
2016-03-08T10:37:27.152Z,66.42
2016-03-08T10:38:27.154Z,66.61
2016-03-08T10:39:27.172Z,66.52
2016-03-08T10:40:27.174Z,66.52
2016-03-08T10:41:27.192Z,65.85
2016-03-08T10:42:27.227Z,65.47
2016-03-08T10:43:27.229Z,66.23
2016-03-08T10:44:27.247Z,66.89
2016-03-08T10:45:27.235Z,66.99
2016-03-08T10:46:27.268Z,66.42
2016-03-08T10:47:27.288Z,66.04
2016-03-08T10:48:27.290Z,65.95
2016-03-08T10:49:27.307Z,65.28
2016-03-08T10:50:27.311Z,66.04
2016-03-08T10:51:27.329Z,66.42
2016-03-08T10:52:27.362Z,66.23
2016-03-08T10:53:27.366Z,65.47
2016-03-08T10:54:27.368Z,65
2016-03-08T10:55:27.387Z,63.67
2016-03-08T10:56:27.405Z,64.43
2016-03-08T10:57:27.407Z,65.75
2016-03-08T10:58:27.441Z,64.46
2016-03-08T10:59:27.429Z,63.7
2016-03-08T11:00:27.462Z,63.7
2016-03-08T11:01:27.464Z,63.04
2016-03-08T11:02:27.484Z,61.8
2016-03-08T11:03:27.486Z,61.71
2016-03-08T11:04:27.504Z,61.04
2016-03-08T11:05:27.523Z,61.65
2016-03-08T11:06:27.541Z,61.17
2016-03-08T11:07:27.544Z,61.36
2016-03-08T11:08:27.562Z,61.07
2016-03-08T11:09:27.580Z,60.22
2016-03-08T11:10:27.599Z,60.41
2016-03-08T11:11:27.617Z,60.03
2016-03-08T11:12:27.619Z,58.83
2016-03-08T11:13:27.639Z,58.16
2016-03-08T11:14:27.641Z,58.25
2016-03-08T11:15:27.674Z,57.5
2016-03-08T11:16:27.678Z,57.68
2016-03-08T11:17:27.696Z,57.59
2016-03-08T11:18:27.713Z,57.02
2016-03-08T11:19:27.716Z,57.3
2016-03-08T11:20:27.751Z,57.3
2016-03-08T11:21:27.754Z,57.59
2016-03-08T11:22:27.771Z,58.06
2016-03-08T11:23:27.790Z,58.22
2016-03-08T11:24:27.823Z,59.08
2016-03-08T11:25:27.826Z,57.46
2016-03-08T11:26:27.860Z,56.89
2016-03-08T11:27:27.894Z,56.42
2016-03-08T11:28:27.851Z,57.65
2016-03-08T11:29:27.868Z,57.46
2016-03-08T11:30:27.887Z,58.61
2016-03-08T11:31:27.921Z,59.08
2016-03-08T11:32:27.923Z,58.61
2016-03-08T11:33:27.911Z,58.22
2016-03-08T11:34:27.945Z,58.41
2016-03-08T11:35:27.962Z,58.61
2016-03-08T11:36:27.981Z,58.89
2016-03-08T11:37:27.999Z,59.65
2016-03-08T11:38:28.003Z,58.7
2016-03-08T11:39:28.020Z,58.61
2016-03-08T11:40:28.022Z,58.51
2016-03-08T11:41:28.058Z,58.61
2016-03-08T11:42:28.044Z,57.56
2016-03-08T11:43:28.062Z,57.37
2016-03-08T11:44:28.081Z,57.56
2016-03-08T11:45:28.131Z,58.2
2016-03-08T11:46:28.117Z,57.72
2016-03-08T11:47:28.167Z,58.29
2016-03-08T11:48:28.139Z,58.95
2016-03-08T11:49:28.157Z,58.95
2016-03-08T11:50:28.174Z,58.86
2016-03-08T11:51:28.209Z,59.05
2016-03-08T11:52:28.196Z,58.67
2016-03-08T11:53:28.214Z,59.52
2016-03-08T11:54:28.217Z,59.52
2016-03-08T11:55:28.235Z,59.33
2016-03-08T11:56:28.254Z,59.91
2016-03-08T11:57:28.271Z,59.81
2016-03-08T11:58:28.274Z,58.32
2016-03-08T11:59:28.309Z,57.65
2016-03-08T12:00:28.311Z,56.99
2016-03-08T12:01:28.330Z,56.32
2016-03-08T12:02:28.332Z,56.89
2016-03-08T12:03:28.381Z,56.23
2016-03-08T12:04:28.370Z,55.59
2016-03-08T12:05:28.387Z,54.83
2016-03-08T12:06:28.407Z,54.74
2016-03-08T12:07:28.410Z,55.69
2016-03-08T12:08:28.428Z,56.8
2016-03-08T12:09:28.447Z,57.75
2016-03-08T12:10:28.465Z,58.67
2016-03-08T12:11:28.468Z,60.19
2016-03-08T12:12:28.486Z,61.14
2016-03-08T12:13:28.504Z,61.8
2016-03-08T12:14:28.507Z,62.15
2016-03-08T12:15:28.557Z,63.1
2016-03-08T12:16:28.529Z,64.05
2016-03-08T12:17:28.562Z,64.71
2016-03-08T12:18:28.565Z,65.09
2016-03-08T12:19:28.583Z,65.53
2016-03-08T12:20:28.601Z,65.34
2016-03-08T12:21:28.603Z,66.2
2016-03-08T12:22:28.623Z,66.48
2016-03-08T12:23:28.640Z,66.48
2016-03-08T12:24:28.659Z,66.2
2016-03-08T12:25:28.678Z,67.14
2016-03-08T12:26:28.680Z,67.24
2016-03-08T12:27:28.683Z,66.33
2016-03-08T12:28:28.716Z,64.71
2016-03-08T12:29:28.720Z,64.62
2016-03-08T12:30:28.722Z,64.33
2016-03-08T12:31:28.740Z,63.39
2016-03-08T12:32:28.759Z,62.34
2016-03-08T12:33:28.777Z,61.49
2016-03-08T12:34:28.795Z,62.05
2016-03-08T12:35:28.782Z,61.2
2016-03-08T12:36:28.832Z,60.63
2016-03-08T12:37:28.819Z,60.73
2016-03-08T12:38:28.837Z,60.38
2016-03-08T12:39:28.700Z,59.62
2016-03-08T12:40:28.874Z,59.52
2016-03-08T12:41:28.876Z,58.2
2016-03-08T12:42:28.894Z,57.91
2016-03-08T12:43:28.913Z,57.62
2016-03-08T12:44:28.932Z,57.72
2016-03-08T12:45:28.949Z,57.24
2016-03-08T12:46:28.953Z,56.29
2016-03-08T12:47:28.955Z,56.39
2016-03-08T12:48:28.973Z,56.39
2016-03-08T12:49:28.993Z,56.29
2016-03-08T12:50:28.995Z,56.1
2016-03-08T12:51:29.090Z,56.61
2016-03-08T12:52:29.031Z,56.77
2016-03-08T12:53:29.049Z,56.23
2016-03-08T12:54:29.068Z,56.61
2016-03-08T12:55:29.070Z,56.8
2016-03-08T12:56:29.136Z,56.23
2016-03-08T12:57:29.107Z,56.29
2016-03-08T12:58:29.125Z,55.76